sensor_id;sensor_type;location;lat;lon;timestamp;temperature;humidity
54558;DHT22;40452;50.080;20.040;2023-04-03T03:03:01;21.00;42.50
54558;DHT22;40452;50.080;20.040;2023-04-03T03:05:27;21.00;43.10
54558;DHT22;40452;50.080;20.040;2023-04-03T03:07:53;20.90;43.00
54558;DHT22;40452;50.080;20.040;2023-04-03T03:10:19;21.00;43.00
54558;DHT22;40452;50.080;20.040;2023-04-03T03:12:44;21.00;43.00
54558;DHT22;40452;50.080;20.040;2023-04-03T03:15:10;21.00;43.00
54558;DHT22;40452;50.080;20.040;2023-04-03T03:17:36;21.00;43.00
54558;DHT22;40452;50.080;20.040;2023-04-03T03:20:05;21.00;43.00
54558;DHT22;40452;50.080;20.040;2023-04-03T03:22:31;21.00;42.70
54558;DHT22;40452;50.080;20.040;2023-04-03T03:24:57;21.10;42.70
54558;DHT22;40452;50.080;20.040;2023-04-03T03:27:22;21.10;42.70
54558;DHT22;40452;50.080;20.040;2023-04-03T03:29:49;21.10;42.70
54558;DHT22;40452;50.080;20.040;2023-04-03T03:32:15;21.10;42.70
54558;DHT22;40452;50.080;20.040;2023-04-03T03:34:40;21.10;42.60
54558;DHT22;40452;50.080;20.040;2023-04-03T03:37:06;21.10;42.60
54558;DHT22;40452;50.080;20.040;2023-04-03T03:39:31;21.10;42.70
54558;DHT22;40452;50.080;20.040;2023-04-03T03:41:57;21.10;42.60
54558;DHT22;40452;50.080;20.040;2023-04-03T03:44:22;21.00;42.60
54558;DHT22;40452;50.080;20.040;2023-04-03T03:46:48;21.10;42.60
54558;DHT22;40452;50.080;20.040;2023-04-03T03:49:13;21.00;42.40
54558;DHT22;40452;50.080;20.040;2023-04-03T03:51:39;21.00;42.60
54558;DHT22;40452;50.080;20.040;2023-04-03T03:54:06;21.00;42.50
54558;DHT22;40452;50.080;20.040;2023-04-03T03:56:31;21.00;42.50
54558;DHT22;40452;50.080;20.040;2023-04-03T03:58:57;21.00;42.50
54558;DHT22;40452;50.080;20.040;2023-04-03T04:01:23;21.00;42.40
54558;DHT22;40452;50.080;20.040;2023-04-03T04:03:49;21.10;42.40
54558;DHT22;40452;50.080;20.040;2023-04-03T04:06:15;21.00;42.30
54558;DHT22;40452;50.080;20.040;2023-04-03T04:08:41;21.00;42.30
54558;DHT22;40452;50.080;20.040;2023-04-03T04:11:07;21.00;42.30
54558;DHT22;40452;50.080;20.040;2023-04-03T04:13:33;21.00;42.20
54558;DHT22;40452;50.080;20.040;2023-04-03T04:15:59;21.00;42.20
54558;DHT22;40452;50.080;20.040;2023-04-03T04:18:25;21.10;42.20
54558;DHT22;40452;50.080;20.040;2023-04-03T04:20:50;21.00;42.20
54558;DHT22;40452;50.080;20.040;2023-04-03T04:23:17;21.10;42.20
54558;DHT22;40452;50.080;20.040;2023-04-03T04:25:47;21.10;42.30
54558;DHT22;40452;50.080;20.040;2023-04-03T04:28:12;21.10;42.20
54558;DHT22;40452;50.080;20.040;2023-04-03T04:30:38;21.10;42.30
54558;DHT22;40452;50.080;20.040;2023-04-03T04:33:03;21.10;42.20
54558;DHT22;40452;50.080;20.040;2023-04-03T04:35:29;21.10;42.20
54558;DHT22;40452;50.080;20.040;2023-04-03T04:37:55;21.00;42.20
54558;DHT22;40452;50.080;20.040;2023-04-03T04:40:21;21.00;42.10
54558;DHT22;40452;50.080;20.040;2023-04-03T04:42:46;21.00;42.10
54558;DHT22;40452;50.080;20.040;2023-04-03T04:45:12;21.00;42.00
54558;DHT22;40452;50.080;20.040;2023-04-03T04:47:38;21.10;42.10
54558;DHT22;40452;50.080;20.040;2023-04-03T04:50:04;21.10;42.10
54558;DHT22;40452;50.080;20.040;2023-04-03T04:52:30;21.10;42.00
54558;DHT22;40452;50.080;20.040;2023-04-03T04:54:55;21.10;42.00
54558;DHT22;40452;50.080;20.040;2023-04-03T04:57:21;21.10;42.10
54558;DHT22;40452;50.080;20.040;2023-04-03T04:59:46;21.10;41.80
54558;DHT22;40452;50.080;20.040;2023-04-03T05:02:12;18.80;36.50
54558;DHT22;40452;50.080;20.040;2023-04-03T05:04:38;17.30;38.10
54558;DHT22;40452;50.080;20.040;2023-04-03T05:07:03;16.50;38.20
54558;DHT22;40452;50.080;20.040;2023-04-03T05:09:29;15.80;38.80
54558;DHT22;40452;50.080;20.040;2023-04-03T05:11:55;15.40;39.30
54558;DHT22;40452;50.080;20.040;2023-04-03T05:14:21;15.00;39.90
54558;DHT22;40452;50.080;20.040;2023-04-03T05:16:47;14.60;40.40
54558;DHT22;40452;50.080;20.040;2023-04-03T05:19:13;14.50;40.60
54558;DHT22;40452;50.080;20.040;2023-04-03T05:21:38;14.60;40.80
54558;DHT22;40452;50.080;20.040;2023-04-03T05:24:04;14.40;40.30
54558;DHT22;40452;50.080;20.040;2023-04-03T05:26:31;14.30;40.80
54558;DHT22;40452;50.080;20.040;2023-04-03T05:28:57;14.20;40.70
54558;DHT22;40452;50.080;20.040;2023-04-03T05:31:22;14.00;41.00
54558;DHT22;40452;50.080;20.040;2023-04-03T05:33:48;14.00;40.80
54558;DHT22;40452;50.080;20.040;2023-04-03T05:36:15;13.70;41.20
54558;DHT22;40452;50.080;20.040;2023-04-03T14:55:19;21.30;38.60
54558;DHT22;40452;50.080;20.040;2023-04-03T14:57:45;20.90;37.40
54558;DHT22;40452;50.080;20.040;2023-04-03T15:00:16;20.90;37.40
54558;DHT22;40452;50.080;20.040;2023-04-03T15:02:43;20.90;37.40
54558;DHT22;40452;50.080;20.040;2023-04-03T15:05:11;21.00;38.20
54558;DHT22;40452;50.080;20.040;2023-04-03T15:07:47;21.10;38.40
54558;DHT22;40452;50.080;20.040;2023-04-03T15:10:21;21.10;38.40
54558;DHT22;40452;50.080;20.040;2023-04-03T15:12:48;21.20;38.40
54558;DHT22;40452;50.080;20.040;2023-04-03T15:15:14;21.30;38.50
54558;DHT22;40452;50.080;20.040;2023-04-03T15:17:40;21.20;38.40
54558;DHT22;40452;50.080;20.040;2023-04-03T15:20:16;21.10;38.50
54558;DHT22;40452;50.080;20.040;2023-04-03T15:22:42;21.20;38.60
54558;DHT22;40452;50.080;20.040;2023-04-03T15:25:09;21.20;38.60
54558;DHT22;40452;50.080;20.040;2023-04-03T15:27:35;21.10;38.50
54558;DHT22;40452;50.080;20.040;2023-04-03T15:30:02;21.30;38.60
54558;DHT22;40452;50.080;20.040;2023-04-03T15:32:28;21.40;38.80
54558;DHT22;40452;50.080;20.040;2023-04-03T15:34:54;21.40;39.10
54558;DHT22;40452;50.080;20.040;2023-04-03T15:37:20;21.30;38.90
54558;DHT22;40452;50.080;20.040;2023-04-03T15:39:45;21.40;39.00
54558;DHT22;40452;50.080;20.040;2023-04-03T15:42:11;21.30;39.00
54558;DHT22;40452;50.080;20.040;2023-04-03T15:44:37;21.30;39.10
54558;DHT22;40452;50.080;20.040;2023-04-03T15:47:03;21.40;39.10
54558;DHT22;40452;50.080;20.040;2023-04-03T15:49:30;21.30;39.10
54558;DHT22;40452;50.080;20.040;2023-04-03T15:51:56;21.40;39.10
54558;DHT22;40452;50.080;20.040;2023-04-03T15:54:21;21.40;39.10
54558;DHT22;40452;50.080;20.040;2023-04-03T15:56:49;21.40;39.10
54558;DHT22;40452;50.080;20.040;2023-04-03T15:59:15;21.50;39.20
54558;DHT22;40452;50.080;20.040;2023-04-03T16:01:40;21.40;39.00
54558;DHT22;40452;50.080;20.040;2023-04-03T16:04:08;21.40;39.20
54558;DHT22;40452;50.080;20.040;2023-04-03T16:06:34;21.40;39.20
54558;DHT22;40452;50.080;20.040;2023-04-03T16:08:59;21.40;39.30
54558;DHT22;40452;50.080;20.040;2023-04-03T16:11:26;21.40;39.30
54558;DHT22;40452;50.080;20.040;2023-04-03T16:13:53;21.40;39.30
54558;DHT22;40452;50.080;20.040;2023-04-03T16:16:18;21.40;39.30
54558;DHT22;40452;50.080;20.040;2023-04-03T16:18:44;21.40;39.30
54558;DHT22;40452;50.080;20.040;2023-04-03T16:21:12;21.40;39.30
54558;DHT22;40452;50.080;20.040;2023-04-03T16:23:39;21.40;39.30
54558;DHT22;40452;50.080;20.040;2023-04-03T16:26:05;21.40;39.30
54558;DHT22;40452;50.080;20.040;2023-04-03T16:28:31;21.40;39.30
54558;DHT22;40452;50.080;20.040;2023-04-03T16:30:56;21.40;39.20
54558;DHT22;40452;50.080;20.040;2023-04-03T16:33:22;21.40;39.10
54558;DHT22;40452;50.080;20.040;2023-04-03T16:35:49;21.40;39.20
54558;DHT22;40452;50.080;20.040;2023-04-03T16:38:16;21.30;39.10
54558;DHT22;40452;50.080;20.040;2023-04-03T16:40:41;21.40;39.10
54558;DHT22;40452;50.080;20.040;2023-04-03T16:43:07;21.30;39.10
54558;DHT22;40452;50.080;20.040;2023-04-03T16:45:33;21.40;39.20
54558;DHT22;40452;50.080;20.040;2023-04-03T16:47:58;21.40;39.20
54558;DHT22;40452;50.080;20.040;2023-04-03T16:50:24;21.40;39.20
54558;DHT22;40452;50.080;20.040;2023-04-03T16:52:50;21.40;39.30
54558;DHT22;40452;50.080;20.040;2023-04-03T16:55:15;21.40;39.40
54558;DHT22;40452;50.080;20.040;2023-04-03T16:57:41;21.40;39.50
54558;DHT22;40452;50.080;20.040;2023-04-03T17:00:08;21.40;39.50
54558;DHT22;40452;50.080;20.040;2023-04-03T17:02:33;21.40;39.50
54558;DHT22;40452;50.080;20.040;2023-04-03T17:04:59;21.40;39.60
54558;DHT22;40452;50.080;20.040;2023-04-03T17:07:25;21.50;39.70
54558;DHT22;40452;50.080;20.040;2023-04-03T17:09:51;21.50;39.70
54558;DHT22;40452;50.080;20.040;2023-04-03T17:12:19;21.50;39.70
54558;DHT22;40452;50.080;20.040;2023-04-03T17:14:44;21.50;39.80
54558;DHT22;40452;50.080;20.040;2023-04-03T17:17:12;21.50;39.80
54558;DHT22;40452;50.080;20.040;2023-04-03T17:19:39;21.50;39.80
54558;DHT22;40452;50.080;20.040;2023-04-03T17:22:07;21.50;40.00
54558;DHT22;40452;50.080;20.040;2023-04-03T17:24:34;21.50;39.90
54558;DHT22;40452;50.080;20.040;2023-04-03T17:27:00;21.60;40.00
54558;DHT22;40452;50.080;20.040;2023-04-03T17:29:25;21.50;40.60
54558;DHT22;40452;50.080;20.040;2023-04-03T17:31:51;21.50;40.00
54558;DHT22;40452;50.080;20.040;2023-04-03T17:34:16;21.50;40.00
54558;DHT22;40452;50.080;20.040;2023-04-03T17:36:42;21.60;40.00
54558;DHT22;40452;50.080;20.040;2023-04-03T17:39:08;21.60;40.00
54558;DHT22;40452;50.080;20.040;2023-04-03T17:41:34;21.50;40.00
54558;DHT22;40452;50.080;20.040;2023-04-03T17:44:00;21.50;39.90
54558;DHT22;40452;50.080;20.040;2023-04-03T17:46:26;21.50;39.90
54558;DHT22;40452;50.080;20.040;2023-04-03T17:48:52;21.50;39.90
54558;DHT22;40452;50.080;20.040;2023-04-03T17:51:24;21.50;39.90
54558;DHT22;40452;50.080;20.040;2023-04-03T17:53:50;21.50;39.80
54558;DHT22;40452;50.080;20.040;2023-04-03T17:56:23;21.50;39.80
54558;DHT22;40452;50.080;20.040;2023-04-03T17:58:50;21.50;39.80
54558;DHT22;40452;50.080;20.040;2023-04-03T18:01:31;21.50;39.80
54558;DHT22;40452;50.080;20.040;2023-04-03T18:03:59;21.50;39.80
54558;DHT22;40452;50.080;20.040;2023-04-03T18:06:52;21.50;39.90
54558;DHT22;40452;50.080;20.040;2023-04-03T18:09:21;21.50;39.80
54558;DHT22;40452;50.080;20.040;2023-04-03T18:11:49;21.50;39.80
54558;DHT22;40452;50.080;20.040;2023-04-03T18:14:19;21.50;39.70
54558;DHT22;40452;50.080;20.040;2023-04-03T18:16:45;21.50;39.80
54558;DHT22;40452;50.080;20.040;2023-04-03T18:19:11;21.40;39.70
54558;DHT22;40452;50.080;20.040;2023-04-03T18:21:40;21.50;39.80
54558;DHT22;40452;50.080;20.040;2023-04-03T18:24:12;21.40;39.60
54558;DHT22;40452;50.080;20.040;2023-04-03T18:26:50;21.40;39.70
54558;DHT22;40452;50.080;20.040;2023-04-03T18:29:17;21.40;39.70
54558;DHT22;40452;50.080;20.040;2023-04-03T18:31:46;21.40;39.80
54558;DHT22;40452;50.080;20.040;2023-04-03T18:34:13;21.40;39.80
54558;DHT22;40452;50.080;20.040;2023-04-03T18:36:39;21.40;39.80
54558;DHT22;40452;50.080;20.040;2023-04-03T18:39:05;21.40;39.80
54558;DHT22;40452;50.080;20.040;2023-04-03T18:41:34;21.40;39.80
54558;DHT22;40452;50.080;20.040;2023-04-03T18:44:03;21.40;39.80
54558;DHT22;40452;50.080;20.040;2023-04-03T18:46:31;21.40;39.90
54558;DHT22;40452;50.080;20.040;2023-04-03T18:48:57;21.40;39.80
54558;DHT22;40452;50.080;20.040;2023-04-03T18:51:23;21.40;39.80
54558;DHT22;40452;50.080;20.040;2023-04-03T18:53:49;21.40;39.90
54558;DHT22;40452;50.080;20.040;2023-04-03T18:56:15;21.40;39.80
54558;DHT22;40452;50.080;20.040;2023-04-03T18:58:41;21.40;39.80
54558;DHT22;40452;50.080;20.040;2023-04-03T19:01:06;21.40;39.90
54558;DHT22;40452;50.080;20.040;2023-04-03T19:03:34;21.40;39.80
54558;DHT22;40452;50.080;20.040;2023-04-03T19:06:01;21.40;39.90
54558;DHT22;40452;50.080;20.040;2023-04-03T19:08:27;21.40;39.80
54558;DHT22;40452;50.080;20.040;2023-04-03T19:10:52;21.40;39.90
54558;DHT22;40452;50.080;20.040;2023-04-03T19:13:18;21.40;39.80
54558;DHT22;40452;50.080;20.040;2023-04-03T19:15:44;21.40;39.90
54558;DHT22;40452;50.080;20.040;2023-04-03T19:18:10;21.40;39.80
54558;DHT22;40452;50.080;20.040;2023-04-03T19:20:36;21.40;39.80
54558;DHT22;40452;50.080;20.040;2023-04-03T19:23:01;21.30;39.80
